HomeShort term forecast

Short term forecast

Graphical weather forecast for the next 48 hours for Montreal:
Short term forecast
This weather forecast is automatically refreshed every 3 hours.

Hourly Experimental Forecast for the next 48 hours ®

Overall summary: Snow (1–2 cm.) until this afternoon.

 Date & Hour   Temp   Feel   Baro   Hum   Speed & Bearing   Wind Gust   Precip.%   Precip.   Visibility   Cloud cover   Conditions 
 12/12/2018 - 11:00  -8.5°C  -14.4°C  1023.2 hPa  63%  13.1 km/h   20.2 km/h  52%  0.18 mm/h  16.1km  13%  Light Snow 
 12/12/2018 - 12:00  -7.7°C  -13.0°C  1023.2 hPa  61%  11.5 km/h   16.9 km/h  19%  0.13 mm/h  16.1km  7%  Possible Light Snow 
 12/12/2018 - 13:00  -7.2°C  -12.0°C  1023.7 hPa  60%  10.3 km/h   14.7 km/h  0%  --  16.1km  4%  Clear 
 12/12/2018 - 14:00  -7.4°C  -12.0°C  1024.3 hPa  60%  9.7 km/h   14.7 km/h  0%  --  16.1km  2%  Clear 
 12/12/2018 - 15:00  -7.6°C  -11.9°C  1024.8 hPa  61%  8.7 km/h   14.7 km/h  0%  --  16.1km  1%  Clear 
 12/12/2018 - 16:00  -8.1°C  -11.8°C  1025.2 hPa  63%  7.0 km/h   14.4 km/h  0%  --  16.1km  0%  Clear 
 12/12/2018 - 17:00  -9.2°C  -12.5°C  1026.0 hPa  68%  5.8 km/h   13.4 km/h  0%  --  16.1km  0%  Clear 
 12/12/2018 - 18:00  -9.5°C  -12.5°C  1026.8 hPa  66%  5.4 km/h   11.2 km/h  0%  --  16.1km  0%  Clear 
 12/12/2018 - 19:00  -10.5°C  -13.6°C  1027.4 hPa  69%  5.2 km/h   9.5 km/h  1%  0.01 mm/h  16.1km  0%  Clear 
 12/12/2018 - 20:00  -10.1°C  -13.8°C  1027.7 hPa  65%  6.3 km/h   10.9 km/h  0%  --  16.1km  2%  Clear 
 12/12/2018 - 21:00  -10.4°C  -14.6°C  1028.0 hPa  64%  7.3 km/h   14.9 km/h  0%  --  16.1km  8%  Clear 
 12/12/2018 - 22:00  -10.7°C  -15.1°C  1028.2 hPa  65%  7.6 km/h   18.2 km/h  0%  --  16.1km  24%  Clear 
 12/12/2018 - 23:00  -11.0°C  -15.4°C  1028.7 hPa  65%  7.5 km/h   16.7 km/h  1%  0.03 mm/h  16.1km  38%  Partly Cloudy 
 13/12/2018 - 00:00  -12.9°C  -18.2°C  1029.2 hPa  70%  8.9 km/h   16.2 km/h  0%  --  16.1km  17%  Clear 
 13/12/2018 - 01:00  -13.1°C  -18.7°C  1029.6 hPa  69%  9.5 km/h   16.6 km/h  1%  0.01 mm/h  16.1km  19%  Clear 
 13/12/2018 - 02:00  -13.2°C  -19.3°C  1029.8 hPa  70%  10.5 km/h   17.0 km/h  0%  --  16.1km  18%  Clear 
 13/12/2018 - 03:00  -13.3°C  -19.8°C  1030.0 hPa  70%  11.8 km/h   17.5 km/h  0%  --  16.1km  17%  Clear 
 13/12/2018 - 04:00  -13.6°C  -20.4°C  1030.2 hPa  71%  12.7 km/h   18.1 km/h  0%  --  16.1km  20%  Clear 
 13/12/2018 - 05:00  -13.2°C  -20.2°C  1030.4 hPa  68%  13.1 km/h   19.2 km/h  0%  --  16.1km  34%  Partly Cloudy 
 13/12/2018 - 06:00  -13.7°C  -20.7°C  1030.7 hPa  69%  13.0 km/h   20.3 km/h  0%  --  16.1km  53%  Partly Cloudy 
 13/12/2018 - 07:00  -13.7°C  -20.7°C  1030.9 hPa  69%  13.1 km/h   21.0 km/h  0%  --  16.1km  61%  Mostly Cloudy 
 13/12/2018 - 08:00  -13.1°C  -20.1°C  1031.3 hPa  69%  13.4 km/h   20.7 km/h  0%  --  16.1km  49%  Partly Cloudy 
 13/12/2018 - 09:00  -12.8°C  -19.7°C  1031.7 hPa  71%  13.6 km/h   19.9 km/h  0%  --  16.1km  25%  Partly Cloudy 
 13/12/2018 - 10:00  -11.7°C  -18.4°C  1031.9 hPa  71%  13.7 km/h   19.0 km/h  0%  --  16.1km  7%  Clear 
 13/12/2018 - 11:00  -10.2°C  -16.5°C  1031.8 hPa  70%  13.1 km/h   17.9 km/h  0%  --  16.1km  3%  Clear 
 13/12/2018 - 12:00  -8.5°C  -14.2°C  1031.5 hPa  69%  12.4 km/h   16.8 km/h  0%  --  16.1km  0%  Clear 
 13/12/2018 - 13:00  -7.3°C  -12.6°C  1031.2 hPa  69%  11.8 km/h   15.9 km/h  2%  0.01 mm/h  16.1km  0%  Clear 
 13/12/2018 - 14:00  -6.8°C  -11.9°C  1031.2 hPa  69%  11.6 km/h   15.5 km/h  3%  0.01 mm/h  16.1km  14%  Clear 
 13/12/2018 - 15:00  -6.9°C  -12.0°C  1031.4 hPa  70%  11.5 km/h   15.2 km/h  3%  0.03 mm/h  16.1km  35%  Partly Cloudy 
 13/12/2018 - 16:00  -7.1°C  -12.1°C  1031.5 hPa  72%  11.2 km/h   15.0 km/h  4%  0.05 mm/h  16.1km  53%  Partly Cloudy 
 13/12/2018 - 17:00  -7.5°C  -12.4°C  1031.9 hPa  74%  10.7 km/h   14.6 km/h  4%  0.03 mm/h  16.1km  63%  Mostly Cloudy 
 13/12/2018 - 18:00  -7.1°C  -11.8°C  1032.4 hPa  71%  10.1 km/h   14.2 km/h  2%  0.01 mm/h  16.1km  73%  Mostly Cloudy 
 13/12/2018 - 19:00  -7.1°C  -11.6°C  1032.8 hPa  72%  9.4 km/h   13.4 km/h  0%  --  16.1km  82%  Mostly Cloudy 
 13/12/2018 - 20:00  -7.4°C  -11.5°C  1032.8 hPa  77%  8.3 km/h   12.0 km/h  0%  --  16.1km  87%  Mostly Cloudy 
 13/12/2018 - 21:00  -7.0°C  -10.6°C  1032.7 hPa  79%  7.1 km/h   10.2 km/h  0%  --  16.1km  92%  Mostly Cloudy 
 13/12/2018 - 22:00  -6.6°C  -9.6°C  1032.5 hPa  80%  6.1 km/h   8.6 km/h  2%  0.01 mm/h  16.1km  94%  Overcast 
 13/12/2018 - 23:00  -6.1°C  -8.8°C  1032.3 hPa  80%  5.6 km/h   7.5 km/h  0%  --  16.1km  91%  Mostly Cloudy 
 14/12/2018 - 00:00  -5.6°C  -8.0°C  1031.9 hPa  80%  5.2 km/h   6.7 km/h  0%  --  16.1km  85%  Mostly Cloudy 
 14/12/2018 - 01:00  -5.1°C  -7.4°C  1031.6 hPa  80%  5.0 km/h   6.3 km/h  0%  --  16.1km  82%  Mostly Cloudy 
 14/12/2018 - 02:00  -4.6°C  -6.9°C  1031.3 hPa  80%  5.2 km/h   6.6 km/h  0%  --  16.1km  83%  Mostly Cloudy 
 14/12/2018 - 03:00  -4.1°C  -6.6°C  1031.0 hPa  80%  5.7 km/h   7.3 km/h  0%  --  16.1km  86%  Mostly Cloudy 
 14/12/2018 - 04:00  -3.7°C  -6.4°C  1030.7 hPa  80%  6.4 km/h   8.0 km/h  0%  --  16.1km  89%  Mostly Cloudy 
 14/12/2018 - 05:00  -2.7°C  -5.7°C  1030.6 hPa  77%  7.5 km/h   8.5 km/h  0%  --  16.1km  91%  Mostly Cloudy 
 14/12/2018 - 06:00  -2.4°C  -5.9°C  1030.5 hPa  77%  8.8 km/h   9.1 km/h  0%  --  16.1km  92%  Mostly Cloudy 
 14/12/2018 - 07:00  -2.0°C  -5.6°C  1030.3 hPa  78%  9.8 km/h   10.2 km/h  1%  0.01 mm/h  16.1km  91%  Mostly Cloudy 
 14/12/2018 - 08:00  -1.4°C  -5.1°C  1029.9 hPa  78%  10.4 km/h   10.9 km/h  1%  0.01 mm/h  16.1km  88%  Mostly Cloudy 
 14/12/2018 - 09:00  -1.4°C  -5.2°C  1029.4 hPa  83%  10.5 km/h   11.2 km/h  2%  0.01 mm/h  16.1km  84%  Mostly Cloudy 
 14/12/2018 - 10:00  -1.0°C  -4.6°C  1028.8 hPa  85%  10.6 km/h   11.4 km/h  2%  0.03 mm/h  16.1km  82%  Mostly Cloudy 
Test

 

Past weather and reports

Past weatherFind in this section the past weather conditions, weather archive, graphics, reports and statistics.

Current conditions

Current weather condition for MontrealAll you need to know about the current weather conditions for Montreal. Weather data is updated every 10 minutes.

Weather forecast

Current Montreal weatherSince 2004, celinium.com website has provided accurate weather forecast for Montreal's island.